Ride Results

Kundabung-Macleay Endurance (11-04-2010)
Ride distance: 80.0 km

Outcomes - Kundabung-Macleay Endurance (11-04-2010)
Division No. of Entries Retired / DNE Completed Withdrawn Ineligible V/O Percentage Completed
HW 6 - 5 1 - - 83.33%
MW 21 - 17 - - 4 80.95%
LW 11 - 9 1 - 1 81.82%
Totals 38 - 31 2 - 5 81.58%
Results - Kundabung-Macleay Endurance (11-04-2010)
No. Rider Horse Place Time Leg Speeds Total
Km/Hr
H/R bpm
Heavyweight
896 Greg Moore Parkview Armageddon 1 (BC) 7:35:00 12.1, 9.3 10.55 33, 42, 60 (Avg:51)
899 Phil Coleman Alnotarj Statistic 2 7:51:00 12.1, 8.7 10.19 33, 42, 60 (Avg:51)
894 Allan Caslick Clovelly Park Raizule 3 8:18:00 10.0, 9.2 9.64 37, 47, 60 (Avg:53)
897 Wendy Bushell Arabesque Arabella 4 8:46:00 10.4, 8.1 9.13 30, 36, 57 (Avg:46)
898 Sue Warren Warren Park O.B. One 4 8:46:00 10.4, 8.1 9.13 33, 39, 55 (Avg:47)
895 Peter Strickland Rivergum Zara Withdrawn L1 0:00:00 - - 26, 35 (Avg:35)
Middleweight
863 Jason Kirk Wollumbin Faiz 1 (BC) 4:38:00 17.7, 16.7 17.27 34, 42, 47 (Avg:44)
857 Jennifer Gilbertson Kurrajong Shadad 2 5:03:00 16.1, 15.5 15.84 32, 45, 43 (Avg:44)
858 Angela Molnar Coolahlee Park Saraba 2 5:03:00 16.1, 15.5 15.84 31, 44, 51 (Avg:47)
855 Peter Kelly Girilambone Haizib 4 5:57:00 15.0, 12.1 13.45 37, 36, 46 (Avg:41)
854 Carol Major Major Luke 4 5:57:00 15.0, 12.1 13.45 36, 45, 54 (Avg:49)
869 Gil Stevenson Thalaba Touch of Gold 6 6:58:00 13.0, 10.2 11.48 41, 40, 60 (Avg:50)
852 Thomas Hermann TTH Headliner 7 7:12:00 12.0, 10.3 11.11 32, 41, 57 (Avg:49)
870 Judith Burton Woodbourne Ruby 8 7:23:00 12.2, 9.7 10.84 36, 43, 52 (Avg:47)
865 Margaret Boland A'Landell Karlinta 9 7:37:00 12.8, 8.8 10.50 38, 46, 60 (Avg:53)
868 Darryl King Shanadarr Khaleel 9 7:37:00 12.8, 8.8 10.50 36, 39, 52 (Avg:45)
850 Bob Locke Nyora Legacy 11 7:43:00 11.7, 9.3 10.37 33, 36, 43 (Avg:39)
861 Megan Matters Tanami Morningstar 12 7:50:00 11.7, 9.0 10.21 34, 43, 46 (Avg:44)
867 Brad Dillon Ningadoo Kadette 13 7:52:00 12.1, 8.7 10.17 40, 46, 58 (Avg:52)
862 Renee Kirk Bara Park Mingari 14 8:02:00 11.8, 8.6 9.96 32, 42, 47 (Avg:44)
866 Garry Weis Kazanova 15 8:15:00 11.7, 8.2 9.70 39, 47, 54 (Avg:50)
860 Sonya Ruprecht Alhambra Etienne 16 8:18:00 9.7, 9.5 9.64 34, 54, 57 (Avg:55)
853 Musab Saleh Alhambra Windfaerer 16 8:18:00 9.7, 9.5 9.64 30, 51, 58 (Avg:54)
856 Raymond Griffiths Oak-Glen Isis Metabolics moderate L2 0:00:00 15.0, 9.4 - 33, 42, 70 (Avg:56)
864 David Urquhart Manana Gaylord Heart Rate L2 0:00:00 11.8, 8.6 - 33, 53, 65 (Avg:59)
859 Dean Chamberlain Annordean Cash Lame L1 0:00:00 12.8 - 35, 47 (Avg:47)
851 Sharon Foster Melcot Merrick Lame L1 0:00:00 12.0 - 32, 45 (Avg:45)
Lightweight
825 Abby McMurrich Fire Phoenix 1 6:12:00 16.4, 10.6 12.90 39, 51, 60 (Avg:55)
830 Wendy Jones Khabeel 2 6:24:00 12.3, 12.6 12.50 45, 49, 54 (Avg:51)
835 Carol Layton Omani Mr Sqiggle 2 (BC) 6:24:00 13.7, 11.4 12.50 34, 40, 48 (Avg:44)
828 Annette Chamberlain Annordean Lady Lilly 4 6:30:00 12.8, 11.8 12.31 39, 41, 48 (Avg:44)
826 Cherry Cummins Winter Hill Arrow 4 6:30:00 12.6, 11.9 12.31 40, 48, 58 (Avg:53)
834 Marion Grove Wickwood Domanic 6 7:34:00 12.2, 9.3 10.57 26, 41, 60 (Avg:50)
827 Ros Ryan Rainbows Reach Scout 7 7:51:00 12.1, 8.7 10.19 28, 36, 49 (Avg:42)
832 Janine Warner Rhiannon''s Dakota 8 8:17:00 10.9, 8.6 9.66 31, 44, 60 (Avg:52)
833 Brooke Warner Coolahlee Park Sabre 8 8:17:00 10.9, 8.6 9.66 38, 44, 56 (Avg:50)
829 Allix Jones Webbs Creek Rising Fast Lame L1 0:00:00 14.6 - 32, 47 (Avg:47)
831 Malcolm Matters Duray Djzulu Withdrawn L1 0:00:00 - - 41, 50 (Avg:50)